Time;durP1;ratioP1;P1;durP2;ratioP2;P2;SDS_P1;SDS_P2;PMS_P1;PMS_P2;Temp;Humidity;BMP_temperature;BMP_pressure;BME280_temperature;BME280_humidity;BME280_pressure;Samples;Min_cycle;Max_cycle;Signal;HPM_P1;HPM_P2
2022/01/20 00:02:01;;;;;;;0.40;0.30;;;3.20;99.90;;;;;;4993193;28;20228;-79
2022/01/20 00:04:39;;;;;;;0.40;0.30;;;3.20;99.90;;;;;;4992971;28;20307;-79
2022/01/20 00:07:27;;;;;;;0.40;0.30;;;3.20;99.90;;;;;;4992701;28;20181;-78
2022/01/20 00:26:27;;;;;;;0.40;0.30;;;3.10;99.90;;;;;;4992489;28;20431;-78
2022/01/20 00:28:59;;;;;;;0.40;0.40;;;3.00;99.90;;;;;;4992433;28;20196;-78
2022/01/20 00:31:35;;;;;;;0.40;0.40;;;3.10;99.90;;;;;;4992602;28;20749;-80
2022/01/20 00:34:12;;;;;;;0.40;0.30;;;3.00;99.90;;;;;;4992612;28;20176;-79
2022/01/20 00:39:24;;;;;;;0.40;0.40;;;2.90;99.90;;;;;;4992150;28;20216;-77
2022/01/20 00:41:51;;;;;;;0.40;0.40;;;2.90;99.90;;;;;;4992304;28;20244;-79
2022/01/20 00:44:19;;;;;;;0.40;0.30;;;3.00;99.90;;;;;;4992057;28;20212;-78
2022/01/20 00:46:46;;;;;;;0.40;0.30;;;3.10;99.90;;;;;;4992199;28;20198;-79
2022/01/20 00:49:13;;;;;;;0.40;0.40;;;3.20;99.90;;;;;;4995366;28;20204;-79
2022/01/20 00:51:40;;;;;;;0.40;0.40;;;3.30;99.90;;;;;;4995987;28;20245;-79
2022/01/20 00:54:06;;;;;;;0.40;0.40;;;3.30;99.90;;;;;;4995793;28;20192;-79
2022/01/20 00:56:33;;;;;;;0.40;0.30;;;3.30;99.90;;;;;;4996276;28;20679;-78
2022/01/20 00:59:00;;;;;;;0.40;0.30;;;3.30;99.90;;;;;;4995545;28;20207;-78
2022/01/20 01:01:28;;;;;;;0.40;0.30;;;3.40;99.90;;;;;;4996086;28;20228;-78
2022/01/20 01:03:55;;;;;;;0.40;0.40;;;3.40;99.90;;;;;;4995398;28;20192;-78
2022/01/20 01:06:34;;;;;;;0.40;0.40;;;3.40;99.90;;;;;;4995800;28;20207;-78
2022/01/20 01:09:02;;;;;;;0.50;0.50;;;3.50;99.90;;;;;;4995508;28;20192;-79
2022/01/20 01:11:28;;;;;;;0.40;0.30;;;3.50;99.90;;;;;;4995977;28;20279;-79
2022/01/20 01:13:57;;;;;;;0.40;0.40;;;3.50;99.90;;;;;;4995580;28;20196;-78
2022/01/20 01:16:35;;;;;;;0.40;0.30;;;3.50;99.90;;;;;;4996035;28;20690;-78
2022/01/20 01:22:02;;;;;;;0.40;0.40;;;3.60;99.90;;;;;;4995417;28;20263;-79
2022/01/20 01:24:30;;;;;;;0.40;0.40;;;3.60;99.90;;;;;;4996066;28;20213;-78
2022/01/20 01:26:57;;;;;;;0.40;0.30;;;3.60;99.90;;;;;;4995839;28;20200;-78
2022/01/20 01:29:40;;;;;;;0.85;0.85;;;3.70;99.90;;;;;;4995635;28;20220;-76
2022/01/20 01:32:11;;;;;;;0.75;0.75;;;3.60;99.90;;;;;;4995528;28;20311;-78
2022/01/20 01:34:41;;;;;;;0.40;0.35;;;3.70;99.90;;;;;;4995362;28;20193;-78
2022/01/20 01:37:25;;;;;;;0.40;0.30;;;3.70;99.90;;;;;;4995442;28;20193;-78
2022/01/20 01:39:51;;;;;;;0.40;0.40;;;3.70;99.90;;;;;;4995450;28;20201;-78
2022/01/20 01:42:24;;;;;;;0.40;0.30;;;3.70;99.90;;;;;;4997910;28;20586;-78
2022/01/20 01:44:52;;;;;;;0.40;0.40;;;3.70;99.90;;;;;;4998678;28;20204;-78
2022/01/20 01:47:19;;;;;;;0.40;0.30;;;3.80;99.90;;;;;;4997643;28;20196;-78
2022/01/20 01:49:47;;;;;;;0.40;0.30;;;3.80;99.90;;;;;;4995699;28;20197;-78
2022/01/20 01:52:13;;;;;;;0.40;0.40;;;3.80;99.90;;;;;;4995005;28;20235;-77
2022/01/20 01:54:40;;;;;;;1.50;1.40;;;3.90;99.90;;;;;;4995922;28;20189;-78
2022/01/20 01:57:09;;;;;;;0.50;0.50;;;3.90;99.90;;;;;;4996495;28;20574;-78
2022/01/20 01:59:36;;;;;;;1.23;1.15;;;3.90;99.90;;;;;;4996080;28;20224;-79
2022/01/20 02:02:03;;;;;;;0.50;0.50;;;3.90;99.90;;;;;;4996578;28;20220;-78
2022/01/20 02:04:30;;;;;;;0.40;0.30;;;3.90;99.90;;;;;;4997088;28;20216;-79
2022/01/20 02:07:28;;;;;;;0.65;0.65;;;3.90;99.90;;;;;;4996629;28;20204;-78
2022/01/20 02:18:36;;;;;;;0.40;0.30;;;3.70;99.90;;;;;;4995524;28;20203;-78
2022/01/20 02:21:05;;;;;;;0.40;0.40;;;3.70;99.90;;;;;;4996251;28;20547;-77
2022/01/20 02:23:32;;;;;;;0.40;0.30;;;3.70;99.90;;;;;;4995472;28;20247;-78
2022/01/20 02:25:58;;;;;;;0.40;0.30;;;3.80;99.90;;;;;;4995884;28;20216;-78
2022/01/20 02:28:27;;;;;;;0.40;0.40;;;3.80;99.90;;;;;;4995791;28;20209;-78
2022/01/20 02:30:55;;;;;;;0.57;0.57;;;3.80;99.90;;;;;;4995384;28;20197;-78
2022/01/20 02:33:26;;;;;;;0.40;0.40;;;3.70;99.90;;;;;;4995612;28;20216;-78
2022/01/20 02:35:56;;;;;;;0.40;0.40;;;3.80;99.90;;;;;;4995676;28;20681;-78
2022/01/20 02:38:30;;;;;;;0.40;0.40;;;3.80;99.90;;;;;;4995444;28;20205;-77
2022/01/20 02:46:26;;;;;;;0.40;0.30;;;3.80;99.90;;;;;;4995132;28;20732;-79
2022/01/20 02:48:53;;;;;;;0.40;0.30;;;3.80;99.90;;;;;;4994477;28;20192;-78
2022/01/20 02:51:19;;;;;;;0.40;0.40;;;3.90;99.90;;;;;;4995096;28;20200;-79
2022/01/20 02:53:47;;;;;;;0.70;0.70;;;3.80;99.90;;;;;;4995419;28;20185;-78
2022/01/20 02:56:14;;;;;;;0.40;0.40;;;3.90;99.90;;;;;;4995026;28;20193;-78
2022/01/20 02:58:42;;;;;;;0.50;0.50;;;3.90;99.90;;;;;;4994999;28;20693;-78
2022/01/20 03:01:08;;;;;;;0.40;0.30;;;3.90;99.90;;;;;;4994305;28;20197;-78
2022/01/20 03:03:35;;;;;;;0.50;0.45;;;3.80;99.90;;;;;;4994800;28;20221;-78
2022/01/20 03:06:03;;;;;;;0.40;0.40;;;3.80;99.90;;;;;;4995387;28;20228;-79
2022/01/20 03:08:29;;;;;;;0.50;0.50;;;3.70;99.90;;;;;;4994915;28;20207;-78
2022/01/20 03:10:57;;;;;;;4.65;1.25;;;3.60;99.90;;;;;;4994426;28;20224;-79
2022/01/20 03:13:24;;;;;;;0.40;0.38;;;3.60;99.90;;;;;;4994839;28;20216;-77
2022/01/20 03:15:51;;;;;;;0.40;0.40;;;3.60;99.90;;;;;;4994799;28;20203;-79
2022/01/20 03:18:18;;;;;;;0.40;0.30;;;3.60;99.90;;;;;;4995102;28;20207;-78
2022/01/20 03:20:46;;;;;;;0.40;0.40;;;3.60;99.90;;;;;;4994088;28;20197;-79
2022/01/20 03:23:12;;;;;;;0.55;0.55;;;3.50;99.90;;;;;;4994147;28;20228;-78
2022/01/20 03:25:39;;;;;;;0.40;0.40;;;3.50;99.90;;;;;;4993800;28;20236;-79
2022/01/20 03:28:07;;;;;;;0.40;0.40;;;3.50;99.90;;;;;;4993984;28;20193;-78
2022/01/20 03:30:34;;;;;;;0.40;0.30;;;3.50;99.90;;;;;;4993125;28;20227;-78
2022/01/20 03:33:01;;;;;;;0.40;0.40;;;3.50;99.90;;;;;;4993298;28;20216;-78
2022/01/20 03:35:28;;;;;;;1.38;1.27;;;3.60;99.90;;;;;;4992893;28;20208;-78
2022/01/20 03:37:55;;;;;;;0.40;0.40;;;3.60;99.90;;;;;;4992818;28;20689;-78
2022/01/20 03:40:23;;;;;;;0.40;0.40;;;3.60;99.90;;;;;;4992733;28;20543;-78
2022/01/20 03:42:50;;;;;;;1.40;0.73;;;3.60;99.90;;;;;;4993212;28;20219;-78
2022/01/20 03:45:18;;;;;;;0.40;0.38;;;3.60;99.90;;;;;;4992583;28;20217;-78
2022/01/20 03:47:45;;;;;;;0.40;0.40;;;3.60;99.90;;;;;;4993115;28;20196;-78
2022/01/20 03:52:53;;;;;;;0.40;0.40;;;3.50;99.90;;;;;;5057235;22;20222;-80
2022/01/20 03:55:19;;;;;;;0.40;0.38;;;3.40;99.90;;;;;;5018779;28;20207;-80
2022/01/20 03:57:46;;;;;;;0.50;0.50;;;3.40;99.90;;;;;;5031170;28;20195;-80
2022/01/20 04:00:14;;;;;;;0.40;0.40;;;3.40;99.90;;;;;;5034853;28;20195;-80
2022/01/20 04:02:42;;;;;;;0.40;0.40;;;3.30;99.90;;;;;;5035131;28;20227;-81
2022/01/20 04:05:09;;;;;;;0.40;0.40;;;3.30;99.90;;;;;;5035427;28;20220;-80
2022/01/20 04:07:36;;;;;;;0.40;0.40;;;3.30;99.90;;;;;;5035004;28;20210;-80
2022/01/20 04:10:03;;;;;;;0.40;0.40;;;3.30;99.90;;;;;;5034823;28;20203;-80
2022/01/20 04:12:30;;;;;;;0.40;0.40;;;3.30;99.90;;;;;;5034562;28;20311;-80
2022/01/20 04:15:00;;;;;;;0.40;0.40;;;3.30;99.90;;;;;;5034599;28;20695;-80
2022/01/20 04:17:27;;;;;;;1.60;1.50;;;3.40;99.90;;;;;;5034910;28;20283;-80
2022/01/20 04:19:55;;;;;;;0.80;0.80;;;3.50;99.90;;;;;;5034299;28;20191;-79
2022/01/20 04:22:24;;;;;;;0.40;0.30;;;3.50;99.90;;;;;;5034032;28;20215;-79
2022/01/20 04:24:51;;;;;;;0.40;0.40;;;3.60;99.90;;;;;;5034929;28;20199;-80
2022/01/20 04:27:18;;;;;;;0.40;0.40;;;3.60;99.90;;;;;;5035042;28;20199;-80
2022/01/20 04:29:44;;;;;;;0.40;0.30;;;3.60;99.90;;;;;;5034927;28;20199;-80
2022/01/20 04:32:11;;;;;;;0.40;0.38;;;3.60;99.90;;;;;;5034254;28;20191;-80
2022/01/20 04:34:38;;;;;;;2.25;0.75;;;3.70;99.90;;;;;;5035476;28;20191;-81
2022/01/20 04:37:07;;;;;;;0.70;0.70;;;3.70;99.90;;;;;;5034802;28;20203;-81
2022/01/20 04:39:38;;;;;;;0.40;0.40;;;3.70;99.90;;;;;;5035131;28;20195;-81
2022/01/20 04:42:06;;;;;;;0.40;0.40;;;3.70;99.90;;;;;;5035458;28;20549;-81
2022/01/20 04:44:40;;;;;;;0.40;0.40;;;3.70;99.90;;;;;;5034656;28;20711;-81
2022/01/20 04:47:17;;;;;;;9.98;1.23;;;3.70;99.90;;;;;;5035142;28;20211;-81
2022/01/20 04:57:59;;;;;;;0.40;0.40;;;3.80;99.90;;;;;;5034710;28;20248;-80
2022/01/20 05:00:26;;;;;;;0.40;0.40;;;3.80;99.90;;;;;;5034924;28;20200;-81
2022/01/20 05:02:53;;;;;;;1.75;0.60;;;3.90;99.90;;;;;;5035320;28;20222;-81
2022/01/20 05:05:20;;;;;;;0.40;0.40;;;3.90;99.90;;;;;;5034730;28;20783;-81
2022/01/20 05:07:48;;;;;;;1.15;1.05;;;3.80;99.90;;;;;;5033934;28;20688;-79
2022/01/20 05:10:15;;;;;;;0.40;0.35;;;3.80;99.90;;;;;;5034511;28;20691;-79
2022/01/20 05:13:03;;;;;;;0.40;0.40;;;3.80;99.90;;;;;;5034589;28;20211;-80
2022/01/20 05:15:32;;;;;;;0.40;0.40;;;3.80;99.90;;;;;;5034528;28;20199;-81
2022/01/20 05:17:58;;;;;;;2.67;1.25;;;3.70;99.90;;;;;;5035417;28;20195;-81
2022/01/20 05:20:25;;;;;;;0.40;0.40;;;3.70;99.90;;;;;;5035334;28;20191;-80
2022/01/20 05:22:53;;;;;;;0.82;0.82;;;3.70;99.90;;;;;;5034691;28;20215;-81
2022/01/20 05:25:20;;;;;;;0.77;0.77;;;3.70;99.90;;;;;;5035135;28;20227;-80
2022/01/20 05:27:47;;;;;;;8.13;0.90;;;3.80;99.90;;;;;;5035308;28;20217;-81
2022/01/20 05:30:14;;;;;;;6.20;2.20;;;3.80;99.90;;;;;;5034029;28;20609;-78
2022/01/20 05:32:40;;;;;;;0.50;0.50;;;3.70;99.90;;;;;;5035510;28;20223;-81
2022/01/20 05:35:08;;;;;;;0.50;0.50;;;3.80;99.90;;;;;;5038774;28;20218;-78
2022/01/20 05:37:35;;;;;;;0.40;0.40;;;3.70;99.90;;;;;;5038607;28;20261;-79
2022/01/20 05:40:04;;;;;;;0.40;0.40;;;3.70;99.90;;;;;;5037940;28;20199;-79
2022/01/20 05:42:31;;;;;;;4.45;4.05;;;3.70;99.90;;;;;;5038303;28;20222;-80
2022/01/20 05:44:58;;;;;;;5.80;0.70;;;3.60;99.90;;;;;;5038030;28;20207;-79
2022/01/20 05:47:29;;;;;;;0.40;0.40;;;3.60;99.90;;;;;;5037983;28;20223;-80
2022/01/20 05:49:55;;;;;;;0.40;0.40;;;3.50;99.90;;;;;;5038041;28;20205;-80
2022/01/20 05:52:22;;;;;;;0.40;0.40;;;3.50;99.90;;;;;;5038498;28;20199;-80
2022/01/20 05:54:49;;;;;;;0.40;0.30;;;3.50;99.90;;;;;;5038737;28;20218;-80
2022/01/20 05:57:18;;;;;;;0.40;0.40;;;3.50;99.90;;;;;;5038152;28;20187;-78
2022/01/20 05:59:44;;;;;;;0.40;0.40;;;3.50;99.90;;;;;;5037630;28;20195;-80
2022/01/20 06:02:25;;;;;;;0.82;0.82;;;3.50;99.90;;;;;;5038062;28;20210;-81
2022/01/20 06:04:52;;;;;;;0.40;0.40;;;3.50;99.90;;;;;;5037801;28;20233;-81
2022/01/20 06:07:20;;;;;;;0.50;0.50;;;3.40;99.90;;;;;;5037853;28;20215;-81
2022/01/20 06:09:46;;;;;;;0.40;0.40;;;3.40;99.90;;;;;;5037892;28;20203;-81
2022/01/20 06:12:13;;;;;;;0.40;0.40;;;3.40;99.90;;;;;;5038359;28;20191;-81
2022/01/20 06:14:41;;;;;;;0.40;0.30;;;3.30;99.90;;;;;;5037758;28;20206;-81
2022/01/20 06:17:08;;;;;;;0.40;0.40;;;3.20;99.90;;;;;;5037666;28;20206;-80
2022/01/20 06:19:34;;;;;;;0.40;0.40;;;3.20;99.90;;;;;;5037197;28;20227;-81
2022/01/20 06:22:01;;;;;;;1.25;1.25;;;3.10;99.90;;;;;;5038146;28;20195;-81
2022/01/20 06:24:28;;;;;;;0.40;0.32;;;3.10;99.90;;;;;;5037728;28;20679;-81
2022/01/20 06:26:55;;;;;;;0.40;0.40;;;3.00;99.90;;;;;;5037494;28;20212;-80
2022/01/20 06:29:22;;;;;;;0.40;0.40;;;3.00;99.90;;;;;;5037286;28;20557;-81
2022/01/20 06:31:50;;;;;;;0.40;0.30;;;3.10;99.90;;;;;;5037820;28;20199;-81
2022/01/20 06:34:17;;;;;;;0.40;0.30;;;3.10;99.90;;;;;;5037937;28;20219;-80
2022/01/20 06:36:43;;;;;;;0.40;0.40;;;3.10;99.90;;;;;;5038291;28;20203;-81
2022/01/20 06:39:10;;;;;;;0.40;0.40;;;3.10;99.90;;;;;;5037880;28;20690;-80
2022/01/20 06:41:38;;;;;;;0.40;0.40;;;3.10;99.90;;;;;;5038292;28;20202;-80
2022/01/20 06:44:05;;;;;;;0.40;0.40;;;3.10;99.90;;;;;;5038297;28;20215;-82
2022/01/20 06:46:32;;;;;;;0.40;0.40;;;3.00;99.90;;;;;;5036907;28;20704;-81
2022/01/20 06:49:00;;;;;;;0.40;0.40;;;3.00;99.90;;;;;;5037393;28;20198;-80
2022/01/20 06:51:28;;;;;;;0.40;0.40;;;3.00;99.90;;;;;;5037155;28;20195;-81
2022/01/20 06:53:55;;;;;;;0.40;0.40;;;3.00;99.90;;;;;;5037862;28;20227;-81
2022/01/20 06:56:21;;;;;;;0.40;0.40;;;2.90;99.90;;;;;;5037510;28;20195;-81
2022/01/20 06:58:48;;;;;;;0.40;0.40;;;2.90;99.90;;;;;;5037275;28;20206;-79
2022/01/20 07:01:16;;;;;;;0.40;0.40;;;2.90;99.90;;;;;;5037847;28;20199;-81
2022/01/20 07:03:43;;;;;;;0.98;0.98;;;2.90;99.90;;;;;;5037676;28;20215;-80
2022/01/20 07:06:11;;;;;;;0.40;0.40;;;2.90;99.90;;;;;;5037383;28;20219;-78
2022/01/20 07:08:37;;;;;;;0.40;0.40;;;2.90;99.90;;;;;;5038218;28;20202;-81
2022/01/20 07:11:04;;;;;;;1.73;1.63;;;2.80;99.90;;;;;;5036998;28;20191;-81
2022/01/20 07:13:31;;;;;;;0.40;0.40;;;2.90;99.90;;;;;;5037042;28;20219;-81
2022/01/20 07:15:57;;;;;;;0.40;0.40;;;2.90;99.90;;;;;;5037321;28;20191;-81
2022/01/20 07:18:24;;;;;;;0.40;0.30;;;2.90;99.90;;;;;;5037060;28;20564;-80
2022/01/20 07:20:51;;;;;;;0.40;0.30;;;2.90;99.90;;;;;;5036968;28;20199;-82
2022/01/20 07:23:19;;;;;;;0.40;0.32;;;2.90;99.90;;;;;;5037218;28;20219;-79
2022/01/20 07:25:46;;;;;;;7.45;0.60;;;2.90;99.90;;;;;;5036892;28;20198;-80
2022/01/20 07:28:12;;;;;;;0.40;0.40;;;2.90;99.90;;;;;;5036774;28;20195;-79
2022/01/20 07:30:39;;;;;;;0.40;0.40;;;2.90;99.90;;;;;;5035094;28;20301;-79
2022/01/20 07:33:07;;;;;;;0.40;0.40;;;2.90;99.90;;;;;;5035712;28;20222;-79
2022/01/20 07:35:35;;;;;;;0.40;0.40;;;2.90;99.90;;;;;;5035897;28;20206;-80
2022/01/20 07:38:02;;;;;;;0.40;0.40;;;2.80;99.90;;;;;;5035780;28;20191;-81
2022/01/20 07:40:31;;;;;;;0.40;0.40;;;2.80;99.90;;;;;;5036746;28;20702;-80
2022/01/20 07:42:57;;;;;;;0.40;0.40;;;2.80;99.90;;;;;;5035853;28;20219;-81
2022/01/20 07:45:24;;;;;;;0.50;0.50;;;2.70;99.90;;;;;;5035354;28;20211;-82
2022/01/20 07:47:51;;;;;;;0.50;0.50;;;2.70;99.90;;;;;;5035701;28;20222;-81
2022/01/20 07:50:18;;;;;;;0.40;0.40;;;2.70;99.90;;;;;;5035174;28;20203;-80
2022/01/20 07:52:45;;;;;;;0.50;0.40;;;2.70;99.90;;;;;;5035502;28;20222;-80
2022/01/20 07:55:12;;;;;;;0.50;0.40;;;2.70;99.90;;;;;;5035281;28;20228;-81
2022/01/20 07:57:40;;;;;;;0.43;0.40;;;2.70;99.90;;;;;;5034899;28;20568;-80
2022/01/20 08:00:08;;;;;;;0.40;0.40;;;2.80;99.90;;;;;;5034831;28;20208;-82
2022/01/20 08:02:35;;;;;;;1.38;1.25;;;2.80;99.90;;;;;;5036008;28;20211;-81
2022/01/20 08:05:02;;;;;;;0.40;0.40;;;2.80;99.90;;;;;;5035641;28;20584;-79
2022/01/20 08:07:29;;;;;;;0.40;0.40;;;2.80;99.90;;;;;;5034883;28;20581;-80
2022/01/20 08:09:58;;;;;;;0.40;0.40;;;2.80;99.90;;;;;;5035024;28;20205;-81
2022/01/20 08:12:25;;;;;;;0.50;0.40;;;2.90;99.90;;;;;;5035225;28;20250;-80
2022/01/20 08:14:53;;;;;;;0.40;0.40;;;2.90;99.90;;;;;;5035126;28;20537;-79
2022/01/20 08:17:20;;;;;;;0.50;0.40;;;2.90;99.90;;;;;;5035182;28;20270;-80
2022/01/20 08:19:47;;;;;;;1.17;1.08;;;3.10;99.90;;;;;;5035438;28;20203;-82
2022/01/20 08:22:14;;;;;;;0.40;0.40;;;3.20;99.90;;;;;;5035521;28;20206;-81
2022/01/20 08:24:41;;;;;;;0.50;0.40;;;3.50;99.90;;;;;;5034803;28;20565;-81
2022/01/20 08:27:09;;;;;;;0.40;0.40;;;4.00;99.90;;;;;;5035467;28;20222;-80
2022/01/20 08:29:36;;;;;;;0.50;0.40;;;4.50;99.90;;;;;;5033560;28;20226;-82
2022/01/20 08:32:05;;;;;;;0.50;0.40;;;5.10;99.90;;;;;;5034949;28;20226;-80
2022/01/20 08:34:31;;;;;;;0.50;0.40;;;5.40;99.90;;;;;;5035734;28;20681;-81
2022/01/20 08:36:59;;;;;;;0.50;0.40;;;5.40;99.90;;;;;;5034142;28;20194;-81
2022/01/20 08:39:42;;;;;;;0.50;0.40;;;5.20;99.90;;;;;;5034816;28;20191;-79
2022/01/20 08:42:10;;;;;;;0.50;0.40;;;5.00;99.90;;;;;;5036065;28;20202;-81
2022/01/20 08:44:37;;;;;;;0.50;0.40;;;4.70;99.90;;;;;;5035759;28;20202;-80
2022/01/20 08:47:09;;;;;;;0.50;0.40;;;4.60;99.90;;;;;;5034260;28;20218;-82
2022/01/20 08:49:37;;;;;;;1.95;1.02;;;4.50;99.90;;;;;;5034700;28;20241;-80
2022/01/20 08:52:04;;;;;;;0.50;0.40;;;4.40;99.90;;;;;;5034838;28;20636;-81
2022/01/20 08:54:31;;;;;;;0.50;0.40;;;4.30;99.90;;;;;;5034936;28;20199;-80
2022/01/20 08:56:58;;;;;;;0.50;0.40;;;4.30;99.90;;;;;;5035886;28;20560;-80
2022/01/20 08:59:26;;;;;;;0.50;0.40;;;4.40;99.90;;;;;;5034279;28;20196;-80
2022/01/20 09:01:53;;;;;;;0.50;0.40;;;4.40;99.90;;;;;;5034238;28;20231;-81
2022/01/20 09:04:21;;;;;;;0.50;0.40;;;4.50;99.90;;;;;;5036653;28;20211;-79
2022/01/20 09:06:48;;;;;;;0.50;0.50;;;4.40;99.90;;;;;;5036219;28;20231;-81
2022/01/20 09:09:17;;;;;;;3.72;1.10;;;4.40;99.90;;;;;;5036647;28;20215;-77
2022/01/20 09:11:52;;;;;;;0.50;0.40;;;4.30;99.90;;;;;;5039046;28;20206;-80
2022/01/20 09:17:04;;;;;;;0.50;0.40;;;4.20;99.90;;;;;;5038050;28;20239;-82
2022/01/20 09:19:32;;;;;;;0.50;0.40;;;4.10;99.90;;;;;;5037732;28;20195;-82
2022/01/20 09:21:59;;;;;;;2.15;0.70;;;4.30;99.90;;;;;;5038249;28;20202;-80
2022/01/20 09:24:26;;;;;;;0.50;0.40;;;4.30;99.90;;;;;;5037682;28;20708;-81
2022/01/20 09:26:53;;;;;;;0.50;0.40;;;4.80;99.90;;;;;;5038768;28;20219;-82
2022/01/20 09:29:20;;;;;;;0.50;0.40;;;5.20;99.90;;;;;;5038512;28;20629;-82
2022/01/20 09:31:50;;;;;;;0.65;0.65;;;5.30;99.90;;;;;;5038118;28;20665;-82
2022/01/20 09:34:17;;;;;;;0.50;0.40;;;5.20;99.90;;;;;;5038192;28;20219;-81
2022/01/20 09:36:45;;;;;;;0.50;0.40;;;5.00;99.90;;;;;;5038852;28;20191;-82
2022/01/20 09:39:13;;;;;;;0.75;0.75;;;4.80;99.90;;;;;;5037574;28;20196;-81
2022/01/20 09:41:40;;;;;;;0.50;0.40;;;4.70;99.90;;;;;;5037620;28;20202;-81
2022/01/20 09:44:06;;;;;;;2.05;0.70;;;4.70;99.90;;;;;;5038124;28;20219;-83
2022/01/20 09:46:34;;;;;;;0.50;0.40;;;4.70;99.90;;;;;;5038143;28;20210;-82
2022/01/20 09:49:01;;;;;;;0.50;0.40;;;4.50;99.90;;;;;;5037461;28;20688;-79
2022/01/20 09:51:27;;;;;;;0.50;0.40;;;4.60;99.90;;;;;;5037095;28;20672;-81
2022/01/20 09:56:23;;;;;;;0.50;0.40;;;4.50;99.90;;;;;;5070332;22;20732;-76
2022/01/20 09:58:51;;;;;;;0.50;0.40;;;4.50;99.90;;;;;;5024112;28;20193;-77
2022/01/20 10:01:36;;;;;;;0.50;0.38;;;4.60;99.90;;;;;;5034164;28;20672;-73
2022/01/20 10:04:03;;;;;;;0.50;0.40;;;4.60;99.90;;;;;;5034213;28;20203;-77
2022/01/20 10:06:30;;;;;;;0.50;0.40;;;4.60;99.90;;;;;;5033119;28;20195;-78
2022/01/20 10:08:58;;;;;;;0.50;0.40;;;4.60;99.90;;;;;;5033690;28;20195;-76
2022/01/20 10:11:26;;;;;;;0.50;0.40;;;4.60;99.90;;;;;;5033694;28;20279;-76
2022/01/20 10:13:56;;;;;;;0.50;0.40;;;4.60;99.90;;;;;;5033929;28;20203;-77
2022/01/20 10:16:23;;;;;;;0.50;0.40;;;4.70;99.90;;;;;;5033930;28;20195;-76
2022/01/20 10:18:53;;;;;;;0.50;0.40;;;4.80;99.90;;;;;;5034022;28;20207;-76
2022/01/20 10:21:28;;;;;;;0.50;0.40;;;4.90;99.90;;;;;;5032836;28;20199;-77
2022/01/20 10:23:55;;;;;;;0.50;0.40;;;4.90;99.90;;;;;;5033373;28;20202;-77
2022/01/20 10:26:24;;;;;;;0.50;0.40;;;4.90;99.90;;;;;;5033654;28;20716;-76
2022/01/20 10:28:55;;;;;;;0.50;0.40;;;4.90;99.90;;;;;;5033156;28;20211;-77
2022/01/20 10:31:38;;;;;;;0.50;0.40;;;4.90;99.90;;;;;;5033965;28;20671;-76
2022/01/20 10:34:06;;;;;;;3.90;1.02;;;4.90;99.90;;;;;;5033608;28;20199;-76
2022/01/20 10:36:38;;;;;;;0.50;0.40;;;4.90;99.90;;;;;;5036003;28;20215;-77
2022/01/20 10:39:05;;;;;;;0.60;0.50;;;5.00;99.90;;;;;;5034290;28;20506;-77
2022/01/20 10:41:33;;;;;;;0.50;0.40;;;5.00;99.90;;;;;;5033538;28;20196;-77
2022/01/20 10:44:04;;;;;;;0.50;0.40;;;5.00;99.90;;;;;;5034228;28;20199;-77
2022/01/20 10:46:46;;;;;;;0.50;0.40;;;5.00;99.90;;;;;;5034315;28;20218;-77
2022/01/20 10:49:13;;;;;;;0.50;0.40;;;5.00;99.90;;;;;;5034857;28;20188;-77
2022/01/20 10:51:40;;;;;;;0.50;0.40;;;5.10;99.90;;;;;;5010890;28;21036;-78
2022/01/20 10:54:10;;;;;;;0.50;0.40;;;5.30;99.90;;;;;;4966010;28;20192;-76
2022/01/20 10:56:48;;;;;;;0.50;0.40;;;5.50;99.90;;;;;;4964677;28;20369;-73
2022/01/20 10:59:16;;;;;;;0.50;0.40;;;5.70;99.90;;;;;;5021287;28;20357;-77
2022/01/20 11:01:42;;;;;;;0.50;0.40;;;5.80;99.90;;;;;;5034578;28;20295;-77
2022/01/20 11:04:10;;;;;;;0.70;0.70;;;5.80;99.90;;;;;;5034025;28;20198;-77
2022/01/20 11:06:39;;;;;;;0.50;0.40;;;5.80;99.90;;;;;;5037378;28;20230;-77
2022/01/20 11:09:08;;;;;;;0.50;0.40;;;5.60;99.90;;;;;;5032710;28;20220;-76
2022/01/20 11:11:35;;;;;;;0.50;0.40;;;5.50;99.90;;;;;;5033150;28;20211;-77
2022/01/20 11:14:02;;;;;;;0.50;0.40;;;5.50;99.90;;;;;;5034510;28;20231;-76
2022/01/20 11:16:37;;;;;;;2.15;0.95;;;5.40;99.90;;;;;;5033806;28;20203;-78
2022/01/20 11:19:14;;;;;;;0.50;0.40;;;5.50;99.90;;;;;;5038003;28;20529;-78
2022/01/20 11:21:43;;;;;;;0.50;0.40;;;5.60;99.90;;;;;;5032023;28;20202;-77
2022/01/20 11:24:17;;;;;;;0.50;0.40;;;5.60;99.90;;;;;;5033049;28;20566;-76
2022/01/20 11:26:50;;;;;;;0.50;0.40;;;5.50;99.90;;;;;;5032059;28;20218;-77
2022/01/20 11:29:17;;;;;;;1.15;0.90;;;5.40;99.90;;;;;;5032280;28;20580;-76
2022/01/20 11:31:45;;;;;;;0.98;0.98;;;5.30;99.90;;;;;;5032665;28;20245;-76
2022/01/20 11:34:16;;;;;;;0.50;0.40;;;5.30;99.90;;;;;;5032267;28;20192;-76
2022/01/20 11:36:43;;;;;;;0.50;0.40;;;5.30;99.90;;;;;;5032140;28;20711;-76
2022/01/20 11:39:11;;;;;;;0.50;0.40;;;5.40;99.90;;;;;;5032304;28;20200;-76
2022/01/20 11:41:40;;;;;;;6.57;1.40;;;5.50;99.90;;;;;;5033181;28;20539;-77
2022/01/20 11:44:11;;;;;;;0.50;0.50;;;5.50;99.90;;;;;;5032512;28;20195;-76
2022/01/20 11:46:40;;;;;;;0.50;0.40;;;5.50;99.90;;;;;;5032258;28;20202;-76
2022/01/20 11:49:10;;;;;;;1.52;1.42;;;5.50;99.90;;;;;;5031542;28;20219;-75
2022/01/20 11:51:47;;;;;;;0.50;0.40;;;5.40;99.90;;;;;;5032849;28;20183;-77
2022/01/20 11:54:26;;;;;;;0.50;0.40;;;5.20;99.90;;;;;;5031967;28;20637;-75
2022/01/20 11:57:03;;;;;;;0.50;0.47;;;5.20;99.90;;;;;;5032349;28;20527;-76
2022/01/20 11:59:38;;;;;;;0.50;0.40;;;5.30;99.90;;;;;;5031250;28;20635;-76
2022/01/20 12:02:04;;;;;;;0.50;0.40;;;5.60;99.90;;;;;;5032223;28;20187;-76
2022/01/20 12:04:34;;;;;;;1.35;0.60;;;5.70;99.90;;;;;;5031707;28;20219;-76
2022/01/20 12:07:01;;;;;;;0.50;0.40;;;5.70;99.90;;;;;;5031509;28;20557;-77
2022/01/20 12:09:31;;;;;;;2.55;2.15;;;5.70;99.90;;;;;;5031010;28;20420;-76
2022/01/20 12:11:58;;;;;;;0.50;0.40;;;5.70;99.90;;;;;;5031302;28;20200;-77
2022/01/20 12:14:35;;;;;;;0.50;0.40;;;5.60;99.90;;;;;;5031264;28;20222;-77
2022/01/20 12:17:03;;;;;;;0.50;0.40;;;5.50;99.90;;;;;;5031411;28;20554;-77
2022/01/20 12:19:30;;;;;;;0.50;0.40;;;5.30;99.90;;;;;;5030445;28;20661;-76
2022/01/20 12:21:59;;;;;;;0.50;0.40;;;5.20;99.90;;;;;;5031042;28;20203;-76
2022/01/20 12:24:25;;;;;;;0.50;0.40;;;5.10;99.90;;;;;;5031405;28;20585;-76
2022/01/20 12:26:52;;;;;;;3.63;1.85;;;5.10;99.90;;;;;;5030605;28;20199;-76
2022/01/20 12:29:19;;;;;;;5.88;5.65;;;4.90;99.90;;;;;;5030094;28;20223;-76
2022/01/20 12:31:48;;;;;;;2.15;0.70;;;4.80;99.90;;;;;;5030893;28;20588;-77
2022/01/20 12:34:16;;;;;;;0.50;0.40;;;4.70;99.90;;;;;;5031049;28;20199;-75
2022/01/20 12:36:51;;;;;;;2.15;1.05;;;4.70;99.90;;;;;;5030912;28;20198;-75
2022/01/20 12:39:26;;;;;;;0.50;0.40;;;4.70;99.90;;;;;;5030770;28;20206;-76
2022/01/20 12:41:58;;;;;;;0.50;0.40;;;4.70;99.90;;;;;;5030934;28;20198;-76
2022/01/20 12:44:25;;;;;;;0.50;0.40;;;4.80;99.90;;;;;;5033690;28;20229;-75
2022/01/20 12:46:52;;;;;;;0.50;0.40;;;4.80;99.90;;;;;;5035405;28;20735;-76
2022/01/20 12:49:19;;;;;;;0.50;0.40;;;4.80;99.90;;;;;;5035197;28;20214;-76
2022/01/20 12:51:49;;;;;;;1.00;0.68;;;4.80;99.90;;;;;;5035144;28;20554;-76
2022/01/20 12:54:17;;;;;;;6.07;1.45;;;4.80;99.90;;;;;;5034229;28;20207;-75
2022/01/20 12:56:47;;;;;;;0.60;0.60;;;4.70;99.90;;;;;;5035105;28;20546;-78
2022/01/20 12:59:20;;;;;;;0.50;0.50;;;4.40;99.90;;;;;;5034659;28;20545;-76
2022/01/20 13:01:49;;;;;;;0.50;0.40;;;4.20;99.90;;;;;;5034916;28;20584;-76
2022/01/20 13:04:17;;;;;;;0.50;0.40;;;4.00;99.90;;;;;;5034654;28;20410;-76
2022/01/20 13:06:51;;;;;;;0.50;0.50;;;4.00;99.90;;;;;;5034656;28;20611;-76
2022/01/20 13:09:21;;;;;;;0.50;0.50;;;3.90;99.90;;;;;;5034157;28;20698;-75
2022/01/20 13:11:55;;;;;;;0.82;0.70;;;3.70;99.90;;;;;;5034752;28;20673;-76
2022/01/20 13:14:33;;;;;;;0.50;0.40;;;3.70;99.90;;;;;;5034550;28;20253;-76
2022/01/20 13:17:00;;;;;;;0.50;0.40;;;3.80;99.90;;;;;;5034184;28;20389;-76
2022/01/20 13:19:35;;;;;;;0.50;0.40;;;3.90;99.90;;;;;;5034131;28;20194;-76
2022/01/20 13:22:04;;;;;;;0.50;0.40;;;4.00;99.90;;;;;;5034593;28;20190;-76
2022/01/20 13:24:34;;;;;;;0.50;0.40;;;4.20;99.90;;;;;;5034621;28;20211;-76
2022/01/20 13:27:06;;;;;;;0.50;0.40;;;4.40;99.90;;;;;;5033836;28;20297;-75
2022/01/20 13:29:41;;;;;;;0.50;0.40;;;4.70;99.90;;;;;;5033910;28;20221;-76
2022/01/20 13:32:09;;;;;;;0.50;0.40;;;5.00;99.90;;;;;;5034209;28;20202;-74
2022/01/20 13:34:36;;;;;;;3.08;1.60;;;5.40;99.90;;;;;;5033338;28;20394;-76
2022/01/20 13:37:03;;;;;;;4.00;1.85;;;5.70;99.90;;;;;;5033801;28;20222;-77
2022/01/20 13:39:32;;;;;;;0.68;0.60;;;5.80;99.90;;;;;;5033494;28;20573;-76
2022/01/20 13:42:12;;;;;;;0.50;0.40;;;5.80;99.90;;;;;;5033761;28;20668;-77
2022/01/20 13:47:23;;;;;;;0.50;0.40;;;5.80;99.90;;;;;;5033788;28;20191;-76
2022/01/20 13:49:52;;;;;;;0.50;0.40;;;5.90;99.90;;;;;;5033547;28;20673;-76
2022/01/20 13:52:20;;;;;;;0.50;0.40;;;5.90;99.90;;;;;;5033615;28;20557;-75
2022/01/20 13:54:50;;;;;;;0.60;0.60;;;5.60;99.90;;;;;;5032432;28;20223;-74
2022/01/20 13:57:20;;;;;;;0.50;0.40;;;5.20;99.90;;;;;;5033848;28;20222;-76
2022/01/20 13:59:53;;;;;;;0.55;0.52;;;5.10;99.90;;;;;;5032967;28;20198;-76
2022/01/20 14:02:20;;;;;;;0.50;0.40;;;5.00;99.90;;;;;;5033277;28;20238;-76